createdAt,value
2019-05-26T00:02:25.142Z,15.10
2019-05-26T00:04:54.081Z,15.00
2019-05-26T00:07:30.772Z,14.90
2019-05-26T00:09:53.562Z,15.00
2019-05-26T00:12:22.447Z,15.10
2019-05-26T00:14:51.370Z,15.10
2019-05-26T00:17:20.277Z,15.10
2019-05-26T00:19:49.216Z,15.10
2019-05-26T00:22:18.191Z,15.00
2019-05-26T00:24:49.554Z,15.00
2019-05-26T00:27:18.451Z,15.00
2019-05-26T00:29:47.393Z,15.00
2019-05-26T00:32:16.290Z,15.00
2019-05-26T00:34:45.225Z,15.00
2019-05-26T00:37:14.123Z,15.00
2019-05-26T00:39:43.053Z,14.80
2019-05-26T00:42:11.977Z,14.80
2019-05-26T00:44:40.907Z,14.90
2019-05-26T00:47:09.902Z,14.90
2019-05-26T00:49:38.834Z,14.80
2019-05-26T00:52:07.724Z,14.70
2019-05-26T00:54:36.665Z,14.60
2019-05-26T00:57:05.656Z,14.50
2019-05-26T00:59:34.602Z,14.50
2019-05-26T01:02:03.488Z,14.50
2019-05-26T01:04:32.425Z,14.60
2019-05-26T01:07:01.365Z,14.50
2019-05-26T01:09:30.261Z,14.50
2019-05-26T01:11:59.202Z,14.60
2019-05-26T01:14:28.091Z,14.60
2019-05-26T01:16:57.031Z,14.70
2019-05-26T01:19:25.933Z,14.60
2019-05-26T01:21:54.865Z,14.70
2019-05-26T01:24:23.773Z,14.50
2019-05-26T01:26:52.695Z,14.40
2019-05-26T01:29:21.601Z,14.50
2019-05-26T01:31:50.532Z,14.50
2019-05-26T01:34:19.417Z,14.50
2019-05-26T01:36:48.761Z,14.50
2019-05-26T01:39:17.658Z,14.50
2019-05-26T01:41:46.590Z,14.30
2019-05-26T01:44:15.481Z,14.40
2019-05-26T01:46:44.412Z,14.40
2019-05-26T01:49:13.310Z,14.40
2019-05-26T01:51:42.257Z,14.30
2019-05-26T01:54:11.154Z,14.30
2019-05-26T01:56:40.083Z,14.40
2019-05-26T01:59:08.972Z,14.40
2019-05-26T02:01:37.910Z,14.30
2019-05-26T02:04:06.799Z,14.30
2019-05-26T02:06:35.745Z,14.20
2019-05-26T02:09:07.552Z,14.20
2019-05-26T02:11:36.475Z,14.20
2019-05-26T02:14:05.762Z,14.30
2019-05-26T02:16:34.693Z,14.40
2019-05-26T02:19:03.588Z,14.30
2019-05-26T02:21:32.513Z,14.30
2019-05-26T02:24:01.404Z,14.20
2019-05-26T02:26:30.344Z,14.30
2019-05-26T02:28:59.247Z,14.20
2019-05-26T02:31:28.186Z,14.30
2019-05-26T02:33:57.069Z,14.30
2019-05-26T02:36:26.009Z,14.20
2019-05-26T02:39:02.532Z,14.30
2019-05-26T02:41:26.865Z,14.20
2019-05-26T02:43:55.851Z,14.20
2019-05-26T02:46:24.747Z,14.10
2019-05-26T02:48:53.681Z,14.10
2019-05-26T02:51:22.575Z,14.00
2019-05-26T02:53:51.524Z,14.10
2019-05-26T02:56:20.937Z,14.10
2019-05-26T02:58:49.866Z,14.10
2019-05-26T03:01:19.069Z,14.10
2019-05-26T03:03:47.993Z,14.10
2019-05-26T03:06:17.570Z,14.10
2019-05-26T03:08:48.205Z,14.10
2019-05-26T03:11:17.903Z,14.10
2019-05-26T03:13:48.590Z,14.10
2019-05-26T03:16:20.870Z,14.10
2019-05-26T03:18:51.383Z,14.10
2019-05-26T03:21:21.676Z,14.20
2019-05-26T03:23:52.462Z,14.30
2019-05-26T03:26:21.477Z,14.40
2019-05-26T03:28:50.371Z,14.30
2019-05-26T03:31:20.104Z,14.30
2019-05-26T03:33:49.043Z,14.40
2019-05-26T03:36:17.920Z,14.40
2019-05-26T03:38:46.866Z,14.40
2019-05-26T03:41:15.766Z,14.30
2019-05-26T03:43:44.696Z,14.40
2019-05-26T03:46:17.948Z,14.30
2019-05-26T03:48:46.963Z,14.30
2019-05-26T03:51:16.134Z,14.30
2019-05-26T03:53:45.091Z,14.30
2019-05-26T03:56:15.433Z,14.20
2019-05-26T03:58:44.375Z,14.20
2019-05-26T04:01:13.364Z,14.10
2019-05-26T04:03:42.385Z,14.10
2019-05-26T04:06:11.565Z,14.00
2019-05-26T04:08:40.501Z,14.10
2019-05-26T04:11:09.424Z,14.10
2019-05-26T04:13:38.336Z,14.20
2019-05-26T04:16:07.219Z,14.30
2019-05-26T04:18:36.141Z,14.30
2019-05-26T04:21:05.075Z,14.30
2019-05-26T04:23:33.951Z,14.30
2019-05-26T04:26:02.885Z,14.40
2019-05-26T04:28:31.780Z,14.40
2019-05-26T04:31:00.707Z,14.40
2019-05-26T04:33:29.709Z,14.30
2019-05-26T04:35:58.631Z,14.40
2019-05-26T04:38:27.494Z,14.40
2019-05-26T04:40:56.430Z,14.50
2019-05-26T04:43:25.315Z,14.50
2019-05-26T04:45:54.234Z,14.50
2019-05-26T04:48:23.117Z,14.50
2019-05-26T04:50:52.044Z,14.60
2019-05-26T04:53:20.926Z,14.60
2019-05-26T04:55:49.852Z,14.60
2019-05-26T04:58:18.734Z,14.70
2019-05-26T05:00:47.658Z,14.90
2019-05-26T05:03:16.551Z,14.90
2019-05-26T05:05:45.462Z,15.00
2019-05-26T05:08:14.338Z,15.20
2019-05-26T05:10:43.267Z,15.00
2019-05-26T05:13:12.148Z,15.10
2019-05-26T05:15:41.071Z,15.10
2019-05-26T05:18:09.985Z,15.10
2019-05-26T05:20:39.213Z,15.00
2019-05-26T05:23:08.098Z,15.20
2019-05-26T05:25:37.016Z,15.30
2019-05-26T05:28:05.903Z,15.40
2019-05-26T05:30:34.832Z,15.40
2019-05-26T05:33:03.732Z,15.50
2019-05-26T05:35:32.655Z,15.70
2019-05-26T05:38:01.537Z,15.80
2019-05-26T05:40:30.457Z,15.90
2019-05-26T05:42:59.401Z,15.80
2019-05-26T05:45:28.286Z,15.80
2019-05-26T05:47:57.226Z,15.80
2019-05-26T05:50:26.117Z,15.90
2019-05-26T05:52:55.056Z,16.10
2019-05-26T05:55:23.990Z,16.20
2019-05-26T05:57:52.895Z,16.50
2019-05-26T06:00:22.091Z,16.60
2019-05-26T06:02:51.022Z,17.00
2019-05-26T06:05:20.001Z,17.30
2019-05-26T06:07:48.925Z,17.50
2019-05-26T06:10:17.909Z,17.30
2019-05-26T06:12:46.843Z,17.30
2019-05-26T06:15:17.523Z,17.30
2019-05-26T06:17:46.702Z,17.50
2019-05-26T06:20:15.796Z,17.60
2019-05-26T06:22:44.714Z,17.50
2019-05-26T06:25:13.698Z,17.60
2019-05-26T06:27:42.660Z,17.80
2019-05-26T06:30:12.064Z,17.80
2019-05-26T06:32:40.945Z,18.10
2019-05-26T06:35:10.572Z,18.20
2019-05-26T06:37:39.464Z,18.30
2019-05-26T06:40:08.604Z,18.40
2019-05-26T06:42:37.482Z,18.50
2019-05-26T06:45:09.533Z,18.50
2019-05-26T06:47:38.446Z,18.40
2019-05-26T06:50:07.553Z,18.60
2019-05-26T06:52:36.436Z,18.40
2019-05-26T06:55:08.986Z,18.70
2019-05-26T06:57:37.916Z,19.20
2019-05-26T07:00:08.620Z,19.10
2019-05-26T07:02:37.654Z,19.30
2019-05-26T07:05:08.287Z,19.30
2019-05-26T07:07:37.177Z,19.20
2019-05-26T07:10:06.901Z,19.30
2019-05-26T07:12:35.887Z,19.30
2019-05-26T07:15:07.313Z,19.30
2019-05-26T07:17:36.214Z,19.50
2019-05-26T07:20:06.747Z,19.70
2019-05-26T07:22:35.635Z,19.70
2019-05-26T07:25:06.884Z,19.90
2019-05-26T07:27:35.807Z,19.90
2019-05-26T07:30:07.416Z,20.20
2019-05-26T07:32:36.357Z,20.10
2019-05-26T07:35:08.938Z,20.30
2019-05-26T07:37:37.959Z,20.40
2019-05-26T07:40:07.421Z,20.60
2019-05-26T07:42:36.356Z,20.60
2019-05-26T07:45:06.842Z,20.60
2019-05-26T07:47:35.774Z,20.50
2019-05-26T07:50:06.668Z,20.40
2019-05-26T07:52:35.667Z,20.80
2019-05-26T07:55:08.132Z,20.90
2019-05-26T07:57:39.692Z,21.00
2019-05-26T08:00:11.393Z,21.10
2019-05-26T08:02:41.288Z,21.00
2019-05-26T08:05:13.753Z,21.10
2019-05-26T08:07:42.962Z,21.50
2019-05-26T08:10:13.444Z,21.60
2019-05-26T08:12:43.396Z,21.40
2019-05-26T08:15:13.061Z,21.30
2019-05-26T08:17:42.917Z,21.40
2019-05-26T08:20:27.270Z,21.30
2019-05-26T08:22:58.889Z,21.40
2019-05-26T08:25:28.403Z,20.90
2019-05-26T08:27:59.497Z,21.30
2019-05-26T08:30:30.014Z,21.60
2019-05-26T08:32:58.947Z,21.40
2019-05-26T08:35:27.825Z,21.20
2019-05-26T08:37:56.785Z,20.90
2019-05-26T08:40:25.654Z,21.00
2019-05-26T08:42:54.662Z,20.90
2019-05-26T08:45:23.689Z,20.50
2019-05-26T08:47:52.905Z,20.60
2019-05-26T08:50:22.925Z,20.60
2019-05-26T08:52:51.866Z,21.00
2019-05-26T08:55:21.528Z,20.90
2019-05-26T08:57:50.397Z,20.90
2019-05-26T09:00:20.542Z,21.00
2019-05-26T09:02:50.430Z,20.80
2019-05-26T09:05:20.182Z,21.20
2019-05-26T09:07:49.624Z,21.40
2019-05-26T09:10:25.207Z,21.50
2019-05-26T09:13:00.703Z,21.80
2019-05-26T09:15:25.528Z,22.10
2019-05-26T09:17:55.552Z,22.00
2019-05-26T09:20:25.285Z,21.90
2019-05-26T09:22:55.188Z,21.40
2019-05-26T09:25:24.777Z,21.40
2019-05-26T09:27:54.081Z,21.50
2019-05-26T09:30:23.734Z,21.20
2019-05-26T09:32:55.909Z,21.40
2019-05-26T09:35:27.092Z,21.40
2019-05-26T09:37:58.010Z,21.60
2019-05-26T09:40:28.023Z,21.60
2019-05-26T09:42:57.500Z,21.70
2019-05-26T09:45:26.586Z,21.80
2019-05-26T09:47:55.469Z,21.70
2019-05-26T09:50:24.533Z,21.60
2019-05-26T09:52:53.386Z,21.40
2019-05-26T09:55:22.417Z,21.10
2019-05-26T09:57:51.316Z,21.10
2019-05-26T10:00:20.791Z,21.10
2019-05-26T10:02:49.710Z,20.90
2019-05-26T10:05:18.704Z,20.70
2019-05-26T10:07:47.619Z,20.70
2019-05-26T10:10:17.346Z,20.80
2019-05-26T10:12:46.284Z,21.00
2019-05-26T10:15:17.071Z,20.80
2019-05-26T10:17:46.022Z,20.70
2019-05-26T10:20:15.003Z,20.70
2019-05-26T10:22:43.914Z,20.70
2019-05-26T10:25:13.613Z,20.80
2019-05-26T10:27:42.544Z,21.00
2019-05-26T10:30:14.367Z,21.10
2019-05-26T10:32:43.290Z,21.20
2019-05-26T10:35:12.370Z,21.20
2019-05-26T10:37:41.311Z,21.20
2019-05-26T10:40:11.104Z,21.30
2019-05-26T10:42:40.051Z,21.30
2019-05-26T10:45:09.712Z,21.20
2019-05-26T10:47:38.637Z,21.20
2019-05-26T10:50:09.600Z,21.10
2019-05-26T10:52:38.533Z,21.00
2019-05-26T10:55:10.697Z,21.00
2019-05-26T10:57:39.662Z,21.10
2019-05-26T11:00:09.711Z,21.00
2019-05-26T11:02:38.751Z,21.10
2019-05-26T11:05:09.138Z,21.40
2019-05-26T11:07:38.066Z,21.60
2019-05-26T11:10:08.268Z,21.60
2019-05-26T11:12:37.295Z,21.70
2019-05-26T11:15:08.409Z,21.90
2019-05-26T11:17:37.526Z,22.00
2019-05-26T11:20:09.345Z,22.00
2019-05-26T11:22:38.296Z,21.90
2019-05-26T11:25:07.973Z,22.00
2019-05-26T11:27:36.911Z,21.90
2019-05-26T11:30:13.844Z,22.20
2019-05-26T11:32:43.385Z,22.30
2019-05-26T11:35:13.093Z,22.60
2019-05-26T11:37:42.028Z,22.70
2019-05-26T11:40:11.487Z,22.80
2019-05-26T11:42:40.418Z,22.90
2019-05-26T11:45:09.804Z,23.00
2019-05-26T11:47:38.744Z,22.90
2019-05-26T11:50:08.473Z,22.90
2019-05-26T11:52:37.352Z,23.10
2019-05-26T11:55:07.408Z,23.00
2019-05-26T11:57:37.144Z,23.00
2019-05-26T12:00:10.716Z,22.90
2019-05-26T12:02:40.170Z,22.70
2019-05-26T12:05:09.907Z,22.70
2019-05-26T12:07:38.778Z,22.70
2019-05-26T12:10:08.205Z,22.80
2019-05-26T12:12:37.131Z,23.00
2019-05-26T12:15:08.460Z,22.90
2019-05-26T12:17:37.362Z,22.80
2019-05-26T12:20:06.492Z,22.90
2019-05-26T12:22:35.364Z,23.20
2019-05-26T12:25:07.930Z,23.20
2019-05-26T12:27:36.827Z,23.20
2019-05-26T12:30:10.249Z,23.20
2019-05-26T12:32:39.134Z,23.30
2019-05-26T12:35:17.587Z,23.10
2019-05-26T12:37:48.571Z,23.00
2019-05-26T12:40:18.207Z,22.90
2019-05-26T12:42:47.170Z,23.10
2019-05-26T12:45:16.608Z,23.40
2019-05-26T12:47:45.491Z,23.40
2019-05-26T12:50:15.730Z,23.70
2019-05-26T12:52:44.672Z,23.80
2019-05-26T12:55:13.767Z,24.10
2019-05-26T12:57:42.707Z,24.30
2019-05-26T13:00:12.523Z,24.20
2019-05-26T13:02:41.518Z,24.60
2019-05-26T13:05:10.654Z,24.90
2019-05-26T13:07:39.602Z,24.90
2019-05-26T13:10:09.480Z,24.90
2019-05-26T13:12:38.452Z,25.10
2019-05-26T13:15:11.971Z,25.40
2019-05-26T13:17:40.895Z,25.50
2019-05-26T13:20:10.777Z,25.30
2019-05-26T13:22:40.916Z,25.10
2019-05-26T13:25:12.150Z,24.90
2019-05-26T13:27:41.068Z,25.20
2019-05-26T13:30:21.241Z,25.20
2019-05-26T13:32:50.899Z,25.60
2019-05-26T13:35:20.384Z,25.20
2019-05-26T13:37:49.782Z,25.50
2019-05-26T13:40:20.780Z,25.20
2019-05-26T13:42:50.630Z,25.00
2019-05-26T13:45:22.782Z,24.90
2019-05-26T13:47:51.972Z,24.80
2019-05-26T13:50:22.132Z,24.70
2019-05-26T13:52:51.772Z,24.50
2019-05-26T13:55:24.901Z,24.60
2019-05-26T13:57:56.683Z,24.50
2019-05-26T14:00:27.626Z,24.10
2019-05-26T14:02:57.484Z,24.00
2019-05-26T14:05:28.928Z,23.90
2019-05-26T14:07:59.467Z,23.90
2019-05-26T14:10:38.197Z,23.70
2019-05-26T14:13:08.640Z,23.80
2019-05-26T14:15:39.510Z,23.70
2019-05-26T14:18:10.178Z,23.80
2019-05-26T14:20:46.090Z,23.90
2019-05-26T14:23:15.725Z,24.00
2019-05-26T14:25:45.689Z,24.20
2019-05-26T14:28:14.603Z,24.20
2019-05-26T14:30:43.494Z,24.40
2019-05-26T14:33:12.419Z,24.00
2019-05-26T14:35:41.303Z,23.40
2019-05-26T14:38:10.237Z,23.10
2019-05-26T14:40:39.136Z,23.10
2019-05-26T14:43:08.065Z,23.00
2019-05-26T14:45:51.983Z,23.10
2019-05-26T14:48:07.836Z,23.30
2019-05-26T14:50:40.286Z,23.80
2019-05-26T14:53:07.636Z,24.10
2019-05-26T14:55:36.545Z,24.20
2019-05-26T14:58:15.172Z,24.20
2019-05-26T15:00:36.583Z,24.20
2019-05-26T15:03:05.552Z,24.10
2019-05-26T15:05:34.438Z,24.00
2019-05-26T15:08:03.374Z,24.10
2019-05-26T15:10:32.263Z,24.40
2019-05-26T15:13:01.192Z,24.30
2019-05-26T15:15:30.146Z,24.20
2019-05-26T15:17:59.217Z,23.90
2019-05-26T15:20:28.135Z,23.70
2019-05-26T15:22:57.148Z,23.70
2019-05-26T15:25:26.028Z,23.90
2019-05-26T15:27:54.957Z,23.80
2019-05-26T15:30:24.109Z,23.80
2019-05-26T15:32:53.111Z,23.90
2019-05-26T15:35:22.459Z,24.10
2019-05-26T15:37:51.378Z,24.00
2019-05-26T15:40:20.279Z,23.90
2019-05-26T15:42:49.198Z,24.00
2019-05-26T15:45:18.281Z,24.10
2019-05-26T15:47:47.256Z,23.70
2019-05-26T15:50:16.458Z,23.40
2019-05-26T15:52:45.344Z,23.20
2019-05-26T15:55:14.970Z,23.20
2019-05-26T15:57:43.856Z,23.00
2019-05-26T16:00:13.280Z,23.10
2019-05-26T16:02:42.181Z,23.00
2019-05-26T16:05:11.433Z,22.80
2019-05-26T16:07:40.324Z,22.70
2019-05-26T16:10:09.964Z,22.30
2019-05-26T16:12:38.942Z,22.20
2019-05-26T16:15:09.391Z,22.30
2019-05-26T16:17:39.069Z,22.20
2019-05-26T16:20:10.625Z,22.20
2019-05-26T16:22:39.549Z,22.30
2019-05-26T16:25:08.546Z,22.60
2019-05-26T16:27:37.519Z,22.80
2019-05-26T16:30:08.454Z,22.90
2019-05-26T16:32:37.341Z,22.90
2019-05-26T16:35:06.590Z,22.80
2019-05-26T16:37:35.473Z,22.80
2019-05-26T16:40:05.776Z,23.10
2019-05-26T16:42:34.737Z,23.50
2019-05-26T16:45:04.714Z,23.30
2019-05-26T16:47:33.654Z,23.60
2019-05-26T16:50:02.602Z,23.70
2019-05-26T16:52:31.539Z,23.80
2019-05-26T16:55:00.442Z,23.90
2019-05-26T16:57:29.371Z,23.90
2019-05-26T16:59:58.251Z,23.80
2019-05-26T17:02:27.189Z,23.90
2019-05-26T17:04:56.084Z,23.60
2019-05-26T17:07:25.619Z,23.60
2019-05-26T17:09:54.530Z,23.40
2019-05-26T17:12:23.457Z,23.50
2019-05-26T17:14:52.349Z,23.50
2019-05-26T17:17:21.391Z,23.40
2019-05-26T17:19:52.698Z,23.30
2019-05-26T17:22:20.870Z,23.30
2019-05-26T17:24:49.757Z,23.10
2019-05-26T17:27:18.696Z,23.00
2019-05-26T17:29:47.645Z,22.70
2019-05-26T17:32:16.564Z,22.40
2019-05-26T17:34:45.483Z,22.20
2019-05-26T17:37:14.376Z,22.10
2019-05-26T17:39:43.335Z,21.90
2019-05-26T17:42:12.212Z,21.80
2019-05-26T17:44:41.154Z,21.60
2019-05-26T17:47:10.035Z,21.50
2019-05-26T17:49:38.968Z,21.10
2019-05-26T17:52:07.872Z,21.00
2019-05-26T17:54:36.815Z,20.90
2019-05-26T17:57:05.704Z,20.80
2019-05-26T17:59:34.670Z,20.50
2019-05-26T18:02:03.534Z,20.50
2019-05-26T18:04:32.464Z,20.40
2019-05-26T18:07:01.363Z,20.20
2019-05-26T18:09:43.237Z,20.20
2019-05-26T18:12:00.798Z,20.20
2019-05-26T18:14:29.738Z,20.10
2019-05-26T18:16:58.645Z,20.10
2019-05-26T18:19:29.827Z,20.10
2019-05-26T18:21:58.188Z,20.00
2019-05-26T18:24:27.162Z,19.90
2019-05-26T18:26:56.022Z,19.90
2019-05-26T18:29:24.957Z,19.90
2019-05-26T18:31:53.950Z,19.70
2019-05-26T18:34:22.875Z,19.70
2019-05-26T18:36:51.794Z,19.70
2019-05-26T18:39:20.792Z,19.60
2019-05-26T18:41:49.725Z,19.50
2019-05-26T18:44:18.649Z,19.50
2019-05-26T18:46:47.679Z,19.40
2019-05-26T18:49:16.561Z,19.30
2019-05-26T18:51:45.492Z,19.20
2019-05-26T18:54:14.377Z,19.20
2019-05-26T18:56:43.397Z,19.10
2019-05-26T18:59:12.284Z,19.10
2019-05-26T19:01:41.226Z,19.00
2019-05-26T19:04:10.114Z,18.90
2019-05-26T19:06:39.050Z,18.80
2019-05-26T19:09:09.545Z,18.80
2019-05-26T19:11:38.562Z,18.70
2019-05-26T19:14:07.644Z,18.70
2019-05-26T19:16:36.572Z,18.60
2019-05-26T19:19:05.463Z,18.60
2019-05-26T19:21:34.391Z,18.60
2019-05-26T19:24:03.274Z,18.60
2019-05-26T19:26:32.206Z,18.60
2019-05-26T19:29:01.069Z,18.60
2019-05-26T19:31:30.010Z,18.50
2019-05-26T19:33:59.395Z,18.40
2019-05-26T19:36:28.319Z,18.30
2019-05-26T19:38:57.275Z,18.20
2019-05-26T19:41:26.142Z,18.10
2019-05-26T19:43:55.080Z,18.00
2019-05-26T19:46:23.973Z,18.00
2019-05-26T19:48:52.898Z,17.90
2019-05-26T19:51:21.797Z,17.90
2019-05-26T19:53:50.739Z,17.80
2019-05-26T19:56:19.631Z,17.80
2019-05-26T19:58:48.593Z,17.70
2019-05-26T20:01:17.471Z,17.80
2019-05-26T20:03:46.409Z,17.80
2019-05-26T20:06:15.314Z,17.70
2019-05-26T20:08:44.253Z,17.70
2019-05-26T20:11:13.142Z,17.60
2019-05-26T20:13:42.066Z,17.60
2019-05-26T20:16:10.957Z,17.50
2019-05-26T20:18:40.020Z,17.40
2019-05-26T20:21:08.900Z,17.40
2019-05-26T20:23:37.829Z,17.30
2019-05-26T20:26:06.720Z,17.30
2019-05-26T20:28:35.665Z,17.20
2019-05-26T20:31:04.546Z,17.20
2019-05-26T20:33:33.490Z,17.20
2019-05-26T20:36:02.415Z,17.10
2019-05-26T20:38:31.307Z,17.10
2019-05-26T20:41:00.341Z,17.00
2019-05-26T20:43:29.225Z,17.00
2019-05-26T20:45:58.156Z,17.00
2019-05-26T20:48:27.080Z,17.10
2019-05-26T20:50:56.003Z,16.90
2019-05-26T20:53:24.887Z,16.90
2019-05-26T20:55:53.829Z,16.90
2019-05-26T20:58:22.714Z,16.90
2019-05-26T21:00:53.380Z,17.00
2019-05-26T21:03:22.183Z,16.90
2019-05-26T21:05:51.129Z,16.90
2019-05-26T21:08:20.031Z,16.80
2019-05-26T21:10:48.965Z,16.70
2019-05-26T21:13:17.903Z,16.60
2019-05-26T21:15:46.794Z,16.60
2019-05-26T21:18:15.735Z,16.60
2019-05-26T21:20:45.225Z,16.60
2019-05-26T21:23:14.158Z,16.60
2019-05-26T21:25:43.031Z,16.50
2019-05-26T21:28:12.101Z,16.30
2019-05-26T21:30:40.948Z,16.40
2019-05-26T21:33:09.948Z,16.30
2019-05-26T21:35:38.815Z,16.40
2019-05-26T21:38:07.744Z,16.30
2019-05-26T21:40:36.635Z,16.30
2019-05-26T21:43:05.567Z,16.10
2019-05-26T21:45:34.451Z,16.10
2019-05-26T21:48:03.518Z,16.00
2019-05-26T21:50:32.582Z,16.00
2019-05-26T21:53:01.481Z,16.00
2019-05-26T21:55:30.410Z,16.00
2019-05-26T21:57:59.293Z,15.90
2019-05-26T22:00:30.610Z,15.90
2019-05-26T22:02:59.503Z,15.90
2019-05-26T22:05:28.426Z,15.80
2019-05-26T22:07:57.323Z,15.70
2019-05-26T22:10:26.253Z,15.70
2019-05-26T22:12:55.133Z,15.70
2019-05-26T22:15:24.066Z,15.70
2019-05-26T22:17:52.950Z,15.70
2019-05-26T22:20:21.984Z,15.60
2019-05-26T22:22:50.862Z,15.60
2019-05-26T22:25:19.801Z,15.60
2019-05-26T22:27:48.694Z,15.60
2019-05-26T22:30:17.809Z,15.60
2019-05-26T22:32:46.692Z,15.60
2019-05-26T22:35:15.618Z,15.50
2019-05-26T22:37:44.510Z,15.40
2019-05-26T22:40:13.763Z,15.50
2019-05-26T22:42:42.648Z,15.40
2019-05-26T22:45:12.577Z,15.30
2019-05-26T22:47:41.542Z,15.30
2019-05-26T22:50:11.190Z,15.40
2019-05-26T22:52:40.195Z,15.30
2019-05-26T22:55:09.718Z,15.40
2019-05-26T22:57:38.651Z,15.30
2019-05-26T23:00:10.619Z,15.30
2019-05-26T23:02:39.665Z,15.20
2019-05-26T23:05:09.043Z,15.20
2019-05-26T23:07:37.949Z,15.10
2019-05-26T23:10:07.745Z,15.10
2019-05-26T23:12:36.662Z,15.00
2019-05-26T23:15:09.343Z,15.00
2019-05-26T23:17:57.535Z,15.10
2019-05-26T23:20:26.422Z,14.90
2019-05-26T23:22:55.364Z,14.90
2019-05-26T23:25:24.242Z,14.90
2019-05-26T23:27:53.194Z,14.90
2019-05-26T23:30:22.317Z,14.90
2019-05-26T23:32:51.244Z,14.80
2019-05-26T23:35:20.171Z,14.80
2019-05-26T23:37:49.152Z,14.80
2019-05-26T23:40:18.149Z,14.80
2019-05-26T23:42:47.072Z,14.80
2019-05-26T23:45:16.353Z,14.80
2019-05-26T23:47:45.283Z,14.80
2019-05-26T23:50:14.181Z,14.80
2019-05-26T23:52:43.114Z,14.70
2019-05-26T23:55:12.007Z,14.70
2019-05-26T23:57:40.895Z,14.70
